Time;durP1;ratioP1;P1;durP2;ratioP2;P2;SDS_P1;SDS_P2;PMS_P1;PMS_P2;Temp;Humidity;BMP_temperature;BMP_pressure;BME280_temperature;BME280_humidity;BME280_pressure;Samples;Min_cycle;Max_cycle;Signal;HPM_P1;HPM_P2
2022/06/05 00:01:31;;;;;;;12.57;3.80;;;;;;;21.24;51.88;98919.06;5127686;27;20035;-93
2022/06/05 00:04:08;;;;;;;12.02;4.32;;;;;;;21.40;51.52;98921.59;5129838;28;20027;-92
2022/06/05 00:06:42;;;;;;;8.75;4.13;;;;;;;21.40;52.35;98907.19;5129198;28;20122;-92
2022/06/05 00:09:16;;;;;;;11.13;4.25;;;;;;;21.40;52.20;98902.66;5130384;28;20047;-91
2022/06/05 00:11:51;;;;;;;11.38;4.68;;;;;;;21.26;52.62;98894.63;5129971;28;20035;-91
2022/06/05 00:14:17;;;;;;;10.90;4.30;;;;;;;21.04;53.74;98893.41;5130170;27;20031;-92
2022/06/05 00:16:44;;;;;;;12.18;3.95;;;;;;;20.98;54.25;98895.66;5127322;27;20123;-91
2022/06/05 00:19:10;;;;;;;17.95;4.32;;;;;;;21.01;53.99;98896.31;5129808;27;20044;-92
2022/06/05 00:21:36;;;;;;;12.10;4.28;;;;;;;21.03;54.64;98905.19;5127201;27;20780;-91
2022/06/05 00:24:02;;;;;;;11.50;4.40;;;;;;;20.87;55.30;98904.50;5122423;28;20035;-93
2022/06/05 00:26:38;;;;;;;9.75;3.72;;;;;;;20.78;55.64;98895.16;5127525;27;20511;-89
2022/06/05 00:29:16;;;;;;;15.30;4.38;;;;;;;20.82;55.33;98909.31;5117421;28;20519;-91
2022/06/05 00:31:49;;;;;;;14.40;4.73;;;;;;;20.77;55.54;98919.59;5117129;27;20096;-91
2022/06/05 00:34:15;;;;;;;13.07;4.00;;;;;;;20.67;55.56;98908.53;5127950;28;20371;-90
2022/06/05 00:37:05;;;;;;;13.63;4.40;;;;;;;20.75;55.25;98911.56;5129660;28;20142;-92
2022/06/05 00:39:40;;;;;;;13.43;4.35;;;;;;;20.67;55.59;98898.59;5128637;28;21088;-87
2022/06/05 00:42:08;;;;;;;13.20;4.68;;;;;;;20.67;54.99;98887.78;5127928;28;20083;-90
2022/06/05 00:44:36;;;;;;;;;;;;;;;20.70;55.71;98903.78;5129051;28;20070;-88
2022/06/05 00:47:05;;;;;;;17.10;4.70;;;;;;;20.72;55.70;98909.94;5129496;27;19924;-88
2022/06/05 00:49:36;;;;;;;11.30;4.40;;;;;;;20.76;55.28;98913.31;5126433;28;20043;-91
2022/06/05 00:52:02;;;;;;;17.65;3.92;;;;;;;20.72;56.10;98912.66;5127631;28;20122;-90
2022/06/05 00:54:28;;;;;;;16.23;4.70;;;;;;;20.60;55.95;98889.16;5119452;27;20039;-88
2022/06/05 00:56:54;;;;;;;12.07;4.43;;;;;;;20.76;56.44;98918.72;5115256;28;20042;-88
2022/06/05 00:59:20;;;;;;;14.60;4.53;;;;;;;20.65;57.94;98919.44;5114642;28;20384;-88
2022/06/05 01:01:47;;;;;;;13.35;4.93;;;;;;;20.56;58.08;98913.72;5113815;28;20051;-88
2022/06/05 01:04:17;;;;;;;11.10;4.55;;;;;;;20.58;57.53;98910.00;5113822;28;20610;-87
2022/06/05 01:06:42;;;;;;;12.70;5.03;;;;;;;20.58;57.28;98892.91;5114027;28;20522;-89
2022/06/05 01:09:08;;;;;;;15.43;5.15;;;;;;;20.47;57.32;98878.25;5116138;27;20063;-87
2022/06/05 01:11:46;;;;;;;16.55;5.00;;;;;;;20.45;57.77;98879.31;5115003;28;20496;-88
2022/06/05 01:14:21;;;;;;;11.38;4.38;;;;;;;20.51;57.38;98904.13;5114198;28;20035;-88
2022/06/05 01:16:52;;;;;;;14.75;4.90;;;;;;;20.42;57.40;98883.09;5115462;28;20047;-88
2022/06/05 01:19:38;;;;;;;14.90;4.65;;;;;;;20.31;57.65;98856.78;5113907;28;20040;-87
2022/06/05 01:22:29;;;;;;;10.73;6.15;;;;;;;20.34;58.19;98879.16;5113227;28;20043;-87
2022/06/05 01:25:17;;;;;;;14.10;5.40;;;;;;;20.35;59.34;98887.16;5114204;28;20118;-88
2022/06/05 01:27:51;;;;;;;14.57;6.22;;;;;;;20.33;59.30;98889.09;5113313;28;20489;-87
2022/06/05 01:30:20;;;;;;;11.50;5.97;;;;;;;20.37;58.88;98890.63;5112856;28;20039;-89
2022/06/05 01:32:53;;;;;;;14.63;6.45;;;;;;;20.30;59.38;98876.66;5114841;28;20119;-88
2022/06/05 01:35:31;;;;;;;14.68;5.68;;;;;;;20.25;60.05;98878.78;5113610;28;20061;-89
2022/06/05 01:38:02;;;;;;;17.53;5.10;;;;;;;20.13;59.80;98852.59;5114251;28;20073;-89
2022/06/05 01:40:33;;;;;;;15.52;5.65;;;;;;;20.19;60.04;98864.81;5113102;28;20523;-88
2022/06/05 01:43:07;;;;;;;10.57;5.70;;;;;;;20.21;60.43;98869.19;5112405;28;20039;-90
2022/06/05 01:45:37;;;;;;;18.90;6.25;;;;;;;20.08;60.92;98855.59;5114083;28;20036;-89
2022/06/05 01:48:05;;;;;;;13.52;5.63;;;;;;;20.10;61.27;98869.88;5114574;28;20484;-90
2022/06/05 01:50:37;;;;;;;15.23;5.50;;;;;;;20.02;61.03;98871.31;5113509;28;20036;-89
2022/06/05 01:53:10;;;;;;;14.13;5.10;;;;;;;19.99;61.26;98858.00;5113839;28;20043;-89
2022/06/05 01:55:41;;;;;;;10.30;4.68;;;;;;;19.94;61.21;98860.16;5114256;28;20039;-88
2022/06/05 01:58:13;;;;;;;14.43;4.93;;;;;;;19.92;61.51;98862.06;5110856;28;20036;-89
2022/06/05 02:00:40;;;;;;;13.65;4.72;;;;;;;19.83;61.07;98856.28;5114062;28;20043;-88
2022/06/05 02:03:11;;;;;;;12.07;4.22;;;;;;;19.98;59.48;98848.19;5114552;28;20040;-91
2022/06/05 02:05:44;;;;;;;11.55;4.07;;;;;;;20.36;56.67;98839.41;5113440;28;20071;-89
2022/06/05 02:08:15;;;;;;;13.38;4.05;;;;;;;20.68;55.62;98837.28;5114113;28;20044;-91
2022/06/05 02:10:47;;;;;;;11.63;4.70;;;;;;;20.85;55.57;98839.72;5113828;28;20044;-88
2022/06/05 02:13:14;;;;;;;11.07;4.55;;;;;;;21.00;56.09;98843.22;5113849;28;20046;-88
2022/06/05 02:15:40;;;;;;;13.20;5.03;;;;;;;20.97;58.04;98831.72;5113751;28;20042;-90
2022/06/05 02:18:06;;;;;;;18.30;5.28;;;;;;;20.86;58.78;98832.47;5113669;28;20493;-89
2022/06/05 02:20:32;;;;;;;12.63;5.57;;;;;;;20.69;59.52;98817.44;5113565;28;20081;-90
2022/06/05 02:22:59;;;;;;;11.82;5.15;;;;;;;20.63;59.97;98823.25;5114187;28;20107;-89
2022/06/05 02:25:26;;;;;;;17.45;5.10;;;;;;;20.42;60.92;98804.75;5112423;27;20059;-89
2022/06/05 02:27:57;;;;;;;12.10;4.93;;;;;;;20.33;61.29;98799.13;5113509;28;20035;-89
2022/06/05 02:30:33;;;;;;;13.10;5.20;;;;;;;20.39;62.28;98812.22;5114251;28;20089;-89
2022/06/05 02:33:08;;;;;;;11.98;5.53;;;;;;;20.30;62.71;98819.09;5114108;28;20028;-90
2022/06/05 02:35:47;;;;;;;13.60;5.15;;;;;;;20.21;63.13;98825.97;5113557;28;20043;-90
2022/06/05 02:38:32;;;;;;;13.98;5.93;;;;;;;20.16;63.05;98832.63;5114187;27;20050;-90
2022/06/05 02:41:05;;;;;;;11.75;5.10;;;;;;;20.02;63.48;98838.94;5113719;28;20044;-88
2022/06/05 02:43:43;;;;;;;10.93;4.80;;;;;;;19.99;62.98;98831.00;5113080;28;20047;-90
2022/06/05 02:46:20;;;;;;;13.73;4.95;;;;;;;19.91;63.02;98823.44;5112969;28;20077;-89
2022/06/05 02:48:57;;;;;;;10.93;5.00;;;;;;;19.89;63.44;98830.75;5112686;28;20056;-88
2022/06/05 02:51:33;;;;;;;17.05;5.63;;;;;;;20.00;63.43;98827.38;5113005;28;20461;-90
2022/06/05 02:54:00;;;;;;;13.23;5.50;;;;;;;20.01;63.82;98834.50;5112062;28;20038;-88
2022/06/05 02:56:31;;;;;;;11.60;5.57;;;;;;;19.95;64.50;98843.88;5112819;28;20047;-89
2022/06/05 02:59:01;;;;;;;12.13;5.38;;;;;;;19.95;64.63;98845.66;5111964;28;20050;-89
2022/06/05 03:04:23;;;;;;;15.32;5.75;;;;;;;19.88;64.96;98843.38;5130886;27;20880;-90
2022/06/05 03:06:48;;;;;;;18.45;5.32;;;;;;;19.80;65.42;98840.31;5131055;28;20047;-87
2022/06/05 03:09:15;;;;;;;13.75;5.10;;;;;;;19.77;65.07;98835.09;5131087;27;20381;-88
2022/06/05 03:11:42;;;;;;;28.95;6.18;;;;;;;19.77;64.34;98828.84;5128765;27;20036;-89
2022/06/05 03:14:08;;;;;;;14.80;4.43;;;;;;;19.72;63.05;98818.34;5130472;27;20032;-89
2022/06/05 03:16:34;;;;;;;12.18;4.55;;;;;;;19.69;62.78;98810.38;5130402;28;20514;-90
2022/06/05 03:19:00;;;;;;;12.75;4.93;;;;;;;19.66;62.49;98816.00;5129821;27;20038;-88
2022/06/05 03:21:30;;;;;;;10.35;4.30;;;;;;;19.74;62.85;98832.59;5130316;28;20039;-88
2022/06/05 03:23:55;;;;;;;9.60;4.68;;;;;;;19.75;63.47;98833.47;5130562;28;20034;-90
2022/06/05 03:26:22;;;;;;;17.80;5.38;;;;;;;19.73;63.86;98838.09;5130759;27;20035;-89
2022/06/05 03:28:48;;;;;;;10.90;4.93;;;;;;;19.69;64.77;98845.47;5128768;27;20059;-89
2022/06/05 03:31:14;;;;;;;15.60;5.35;;;;;;;19.65;65.17;98844.81;5127661;28;20070;-87
2022/06/05 03:33:39;;;;;;;16.75;5.70;;;;;;;19.59;65.94;98844.34;5130171;28;20504;-89
2022/06/05 03:36:09;;;;;;;14.65;5.40;;;;;;;19.50;66.27;98838.53;5128899;28;20109;-87
2022/06/05 03:38:37;;;;;;;15.65;5.10;;;;;;;19.54;66.68;98851.81;5127300;28;20039;-90
2022/06/05 03:41:03;;;;;;;13.60;4.75;;;;;;;19.52;66.48;98853.75;5130098;28;20063;-89
2022/06/05 03:43:28;;;;;;;12.10;5.05;;;;;;;19.56;66.69;98855.31;5130502;27;20074;-89
2022/06/05 03:45:59;;;;;;;15.88;5.95;;;;;;;19.56;66.64;98856.19;5129451;28;20050;-90
2022/06/05 03:48:25;;;;;;;13.82;5.50;;;;;;;19.60;66.97;98862.25;5129609;28;20028;-89
2022/06/05 03:50:51;;;;;;;12.73;5.70;;;;;;;19.65;67.46;98873.63;5129741;27;20088;-88
2022/06/05 03:53:17;;;;;;;14.75;5.97;;;;;;;19.49;67.31;98847.59;5125457;28;20449;-90
2022/06/05 03:55:44;;;;;;;15.75;6.60;;;;;;;19.59;67.41;98864.06;5129656;27;20039;-89
2022/06/05 03:58:10;;;;;;;12.63;5.35;;;;;;;19.58;67.53;98867.75;5128168;28;20126;-88
2022/06/05 04:00:36;;;;;;;12.63;5.22;;;;;;;19.50;67.22;98845.78;5129435;28;20165;-90
2022/06/05 04:03:03;;;;;;;13.93;5.45;;;;;;;19.60;67.56;98840.66;5129997;28;20039;-89
2022/06/05 04:05:28;;;;;;;13.93;6.28;;;;;;;19.67;67.66;98860.91;5128599;28;20039;-88
2022/06/05 04:07:55;;;;;;;17.17;6.50;;;;;;;19.47;68.03;98837.84;5130762;27;20035;-88
2022/06/05 04:10:21;;;;;;;14.32;6.30;;;;;;;19.62;67.57;98871.09;5128563;27;20035;-87
2022/06/05 04:12:49;;;;;;;14.65;6.05;;;;;;;19.61;67.84;98869.38;5129003;28;20500;-89
2022/06/05 04:15:15;;;;;;;16.17;6.40;;;;;;;19.63;67.76;98889.91;5118909;28;20039;-88
2022/06/05 04:17:41;;;;;;;15.73;6.20;;;;;;;19.61;68.23;98875.63;5115639;28;20085;-88
2022/06/05 04:20:08;;;;;;;18.08;6.63;;;;;;;19.64;68.05;98872.75;5115382;28;20050;-87
2022/06/05 04:22:34;;;;;;;15.32;5.85;;;;;;;19.73;67.32;98886.66;5114630;28;20043;-88
2022/06/05 04:25:00;;;;;;;17.90;6.03;;;;;;;19.63;67.76;98892.59;5114520;28;20032;-89
2022/06/05 04:27:26;;;;;;;17.45;6.40;;;;;;;19.75;68.87;98872.09;5115792;28;20127;-90
2022/06/05 04:29:53;;;;;;;18.52;6.53;;;;;;;19.92;66.82;98864.78;5115254;28;20544;-88
2022/06/05 04:32:19;;;;;;;14.32;6.10;;;;;;;19.93;66.94;98874.59;5115415;27;20124;-87
2022/06/05 04:34:45;;;;;;;14.40;5.60;;;;;;;19.82;66.95;98869.88;5115185;28;20500;-88
2022/06/05 04:37:11;;;;;;;13.52;6.07;;;;;;;20.03;68.83;98886.53;5115135;28;20047;-88
2022/06/05 04:39:37;;;;;;;15.15;6.18;;;;;;;20.06;67.06;98868.31;5115386;28;20031;-89
2022/06/05 04:42:03;;;;;;;14.32;6.10;;;;;;;20.15;67.45;98858.75;5115513;28;20031;-89
2022/06/05 04:44:29;;;;;;;16.90;6.03;;;;;;;20.18;67.46;98863.97;5115176;28;20459;-89
2022/06/05 04:46:56;;;;;;;17.10;6.43;;;;;;;20.22;67.62;98862.78;5114943;28;20039;-87
2022/06/05 04:49:22;;;;;;;15.18;6.03;;;;;;;20.24;67.54;98846.50;5114886;28;20041;-88
2022/06/05 04:51:48;;;;;;;15.52;6.75;;;;;;;19.90;68.80;98862.16;5115223;28;20126;-88
2022/06/05 04:54:16;;;;;;;15.18;6.20;;;;;;;19.83;68.63;98861.69;5115080;28;20118;-88
2022/06/05 04:56:41;;;;;;;13.55;6.25;;;;;;;19.95;68.81;98902.34;5114599;28;20508;-88
2022/06/05 04:59:07;;;;;;;16.48;6.63;;;;;;;20.01;67.98;98939.75;5114756;28;20039;-88
2022/06/05 05:01:35;;;;;;;13.05;5.53;;;;;;;19.92;66.54;98957.41;5110404;28;20082;-89
2022/06/05 05:04:05;;;;;;;18.35;5.63;;;;;;;20.17;64.15;98991.84;5114872;27;20445;-89
2022/06/05 05:06:32;;;;;;;12.65;5.07;;;;;;;20.45;63.16;99007.16;5114324;27;20039;-89
2022/06/05 05:08:58;;;;;;;17.30;7.47;;;;;;;20.64;63.42;99004.16;5114702;28;20043;-89
2022/06/05 05:11:26;;;;;;;10.90;5.18;;;;;;;20.82;63.69;99002.09;5114357;28;20039;-88
2022/06/05 05:13:53;;;;;;;14.50;5.97;;;;;;;20.94;63.36;99000.44;5114454;28;20512;-89
2022/06/05 05:16:18;;;;;;;17.40;6.45;;;;;;;21.14;63.28;98993.69;5114165;28;20031;-89
2022/06/05 05:18:44;;;;;;;17.35;6.15;;;;;;;21.17;62.36;98971.84;5113373;28;20042;-89
2022/06/05 05:21:14;;;;;;;22.33;6.30;;;;;;;21.36;62.46;98990.44;5113401;27;20130;-89
2022/06/05 05:23:41;;;;;;;24.73;6.70;;;;;;;21.42;62.23;98976.47;5113451;28;20036;-90
2022/06/05 05:26:09;;;;;;;17.92;7.10;;;;;;;21.46;61.76;98979.84;5113790;28;20038;-90
2022/06/05 05:28:35;;;;;;;18.13;6.07;;;;;;;21.62;61.08;98980.56;5113518;28;20133;-89
2022/06/05 05:31:01;;;;;;;14.75;6.45;;;;;;;21.60;61.58;98978.91;5111332;28;20044;-89
2022/06/05 05:33:27;;;;;;;13.13;6.55;;;;;;;21.51;62.10;98975.00;5117975;27;20515;-88
2022/06/05 05:35:54;;;;;;;20.95;7.20;;;;;;;21.59;62.02;98986.16;5113714;27;20484;-89
2022/06/05 05:38:21;;;;;;;16.35;6.22;;;;;;;21.62;61.29;98964.31;5113123;28;20443;-88
2022/06/05 05:43:40;;;;;;;16.98;6.22;;;;;;;21.68;61.33;98958.44;5087899;27;20453;-87
2022/06/05 05:46:08;;;;;;;18.45;6.07;;;;;;;21.71;62.16;98958.25;5089415;28;20048;-88
2022/06/05 05:48:33;;;;;;;17.60;6.03;;;;;;;21.82;61.75;98962.06;5089460;28;20130;-91
2022/06/05 05:50:59;;;;;;;19.83;6.63;;;;;;;21.70;61.82;98956.50;5089719;28;20525;-91
2022/06/05 05:53:25;;;;;;;13.32;5.97;;;;;;;21.72;61.25;98964.53;5089859;28;20032;-89
2022/06/05 05:55:50;;;;;;;13.90;6.10;;;;;;;21.68;61.37;98953.03;5089388;28;20048;-90
2022/06/05 05:58:16;;;;;;;24.13;7.07;;;;;;;21.73;61.61;98918.41;5089076;28;20043;-90
2022/06/05 06:00:43;;;;;;;13.43;6.32;;;;;;;21.83;61.34;98907.78;5089634;28;20051;-89
2022/06/05 06:03:09;;;;;;;14.55;5.80;;;;;;;21.77;62.30;98942.53;5087916;28;20036;-91
2022/06/05 06:05:35;;;;;;;11.68;5.78;;;;;;;21.93;60.86;98976.56;5087576;28;20032;-90
2022/06/05 06:08:00;;;;;;;13.27;6.30;;;;;;;21.39;62.43;99024.50;5088042;28;20068;-90
2022/06/05 06:10:26;;;;;;;16.52;6.55;;;;;;;21.19;64.41;99013.19;5089185;28;20033;-91
2022/06/05 06:12:52;;;;;;;13.18;6.13;;;;;;;21.42;63.51;99018.91;5090258;28;20033;-89
2022/06/05 06:15:18;;;;;;;16.33;6.70;;;;;;;21.48;64.03;99038.31;5089290;28;20044;-88
2022/06/05 06:17:45;;;;;;;16.15;6.57;;;;;;;21.52;62.17;99031.72;5089598;28;20370;-89
2022/06/05 06:20:12;;;;;;;20.98;6.20;;;;;;;21.58;63.85;99013.31;5089094;28;20047;-91
2022/06/05 06:22:38;;;;;;;19.25;6.57;;;;;;;21.72;63.18;99035.75;5088302;28;20477;-90
2022/06/05 06:25:05;;;;;;;16.65;6.80;;;;;;;21.56;64.49;99069.38;5088703;28;20048;-89
2022/06/05 06:27:31;;;;;;;18.08;6.65;;;;;;;21.48;64.89;99024.78;5089249;28;20043;-89
2022/06/05 06:29:57;;;;;;;17.35;7.20;;;;;;;21.66;65.20;99035.31;5083544;28;20394;-90
2022/06/05 06:32:22;;;;;;;14.60;6.68;;;;;;;21.66;64.99;99048.84;5088868;28;20090;-88
2022/06/05 06:34:49;;;;;;;14.57;6.35;;;;;;;21.80;65.74;99024.41;5088312;28;20556;-90
2022/06/05 06:37:16;;;;;;;15.07;6.68;;;;;;;21.64;64.98;99043.56;5086784;28;20048;-90
2022/06/05 06:39:42;;;;;;;17.73;6.72;;;;;;;21.64;65.74;99037.25;5086423;28;20086;-90
2022/06/05 06:42:08;;;;;;;17.85;6.10;;;;;;;21.71;66.91;99034.03;5088255;28;20074;-90
2022/06/05 06:44:34;;;;;;;18.75;6.40;;;;;;;21.83;66.64;99031.44;5087112;28;20421;-91
2022/06/05 06:47:00;;;;;;;20.02;6.63;;;;;;;22.01;64.42;99013.03;5088444;28;20028;-91
2022/06/05 06:49:25;;;;;;;15.65;7.50;;;;;;;21.98;63.36;98994.31;5088167;28;20036;-89
2022/06/05 06:51:53;;;;;;;14.32;6.32;;;;;;;22.07;63.35;99001.78;5088733;28;20051;-90
2022/06/05 06:54:19;;;;;;;16.45;7.40;;;;;;;22.12;63.33;98986.06;5079043;28;20040;-89
2022/06/05 06:56:44;;;;;;;15.88;6.78;;;;;;;21.97;62.61;99020.53;5074646;28;20116;-90
2022/06/05 06:59:10;;;;;;;15.32;6.18;;;;;;;21.80;64.49;99059.59;5075077;28;20120;-89
2022/06/05 07:01:36;;;;;;;15.23;6.82;;;;;;;21.86;63.78;99033.94;5074761;28;20036;-90
2022/06/05 07:04:02;;;;;;;20.77;7.20;;;;;;;21.65;63.53;98999.28;5074562;28;20038;-88
2022/06/05 07:06:28;;;;;;;17.15;7.28;;;;;;;21.80;64.35;98977.53;5074015;28;20054;-90
2022/06/05 07:08:55;;;;;;;15.65;7.00;;;;;;;21.82;63.59;98906.06;5075298;28;20493;-90
2022/06/05 07:11:22;;;;;;;17.08;6.15;;;;;;;22.07;62.22;98883.50;5073319;28;20089;-91
2022/06/05 07:13:48;;;;;;;16.42;6.70;;;;;;;21.95;62.35;98877.13;5073741;28;20044;-91
2022/06/05 07:16:14;;;;;;;17.33;6.10;;;;;;;21.92;63.04;98904.44;5074565;28;20051;-88
2022/06/05 07:18:40;;;;;;;15.82;6.25;;;;;;;21.93;62.29;98905.31;5073232;28;20044;-90
2022/06/05 07:21:08;;;;;;;18.90;7.63;;;;;;;22.15;61.61;98929.00;5073356;28;20393;-90
2022/06/05 07:23:33;;;;;;;20.65;8.77;;;;;;;21.65;63.40;98898.28;5074684;28;20516;-91
2022/06/05 07:26:00;;;;;;;18.83;6.85;;;;;;;21.27;64.05;98886.41;5071610;28;20056;-90
2022/06/05 07:28:26;;;;;;;16.00;6.90;;;;;;;21.48;64.05;98867.84;5073567;28;20064;-92
2022/06/05 07:30:52;;;;;;;14.85;5.95;;;;;;;21.42;64.17;98873.69;5074920;28;20064;-91
2022/06/05 07:33:18;;;;;;;17.88;6.10;;;;;;;21.31;65.31;98887.91;5074211;28;20032;-88
2022/06/05 07:35:44;;;;;;;23.55;7.00;;;;;;;21.17;66.21;98896.13;5074214;28;20393;-92
2022/06/05 07:38:10;;;;;;;21.20;7.05;;;;;;;21.37;65.56;98902.00;5072853;28;20062;-90
2022/06/05 07:40:40;;;;;;;14.77;6.30;;;;;;;21.78;64.51;98882.03;5072006;28;20082;-89
2022/06/05 07:43:09;;;;;;;11.40;5.60;;;;;;;21.93;63.67;98870.97;5073489;28;20222;-90
2022/06/05 07:45:35;;;;;;;12.93;6.32;;;;;;;21.82;63.81;98887.13;5072808;28;20039;-89
2022/06/05 07:48:01;;;;;;;15.10;6.25;;;;;;;22.05;63.64;98860.22;5073491;28;20046;-91
2022/06/05 07:50:27;;;;;;;18.80;6.47;;;;;;;22.30;60.42;98838.50;5073014;28;20494;-90
2022/06/05 07:55:46;;;;;;;18.17;5.55;;;;;;;22.63;58.68;98828.81;5087674;27;20387;-89
2022/06/05 07:58:12;;;;;;;13.88;6.35;;;;;;;22.97;56.74;98840.66;5088606;28;20489;-89
2022/06/05 08:00:38;;;;;;;17.27;6.15;;;;;;;23.23;56.02;98848.66;5089653;28;20131;-93
2022/06/05 08:03:04;;;;;;;14.90;6.03;;;;;;;23.51;55.44;98844.66;5088784;28;20040;-89
2022/06/05 08:05:29;;;;;;;13.68;6.07;;;;;;;23.78;55.13;98840.75;5089950;28;20694;-89
2022/06/05 08:07:56;;;;;;;14.55;5.75;;;;;;;23.98;54.32;98845.44;5088509;28;20051;-90
2022/06/05 08:10:22;;;;;;;18.35;6.30;;;;;;;24.17;53.95;98841.22;5088053;28;20045;-90
2022/06/05 08:12:49;;;;;;;16.85;6.68;;;;;;;25.09;51.56;98836.25;5088565;28;20036;-90
2022/06/05 08:15:16;;;;;;;18.20;5.55;;;;;;;25.54;49.03;98808.72;5087297;28;20039;-90
2022/06/05 08:17:42;;;;;;;14.57;6.38;;;;;;;26.31;47.41;98811.94;5090121;28;20044;-92
2022/06/05 08:20:09;;;;;;;16.95;5.72;;;;;;;26.76;46.67;98803.22;5089231;28;20516;-91
2022/06/05 08:22:36;;;;;;;19.45;5.75;;;;;;;26.79;44.79;98802.97;5082607;28;20037;-91
2022/06/05 08:25:02;;;;;;;14.15;5.35;;;;;;;26.58;44.59;98808.53;5089624;28;20537;-89
2022/06/05 08:27:28;;;;;;;15.65;5.47;;;;;;;26.43;44.86;98805.31;5088135;28;20512;-88
2022/06/05 08:29:56;;;;;;;12.88;5.15;;;;;;;26.42;44.70;98807.19;5088492;28;20132;-90
2022/06/05 08:32:23;;;;;;;14.48;5.65;;;;;;;26.85;43.44;98799.66;5087303;28;20083;-90
2022/06/05 08:34:49;;;;;;;17.70;5.25;;;;;;;27.53;42.75;98804.16;5087711;28;20041;-89
2022/06/05 08:43:32;;;;;;;18.80;6.07;;;;;;;27.92;39.45;98810.34;5090993;27;20393;-93
2022/06/05 08:46:05;;;;;;;17.35;5.80;;;;;;;27.99;39.80;98795.06;5065049;28;20063;-88
2022/06/05 08:48:35;;;;;;;18.55;5.95;;;;;;;27.92;40.02;98802.16;5068441;28;20064;-89
2022/06/05 08:51:13;;;;;;;15.65;5.60;;;;;;;28.15;39.09;98788.06;5067667;28;20116;-89
2022/06/05 08:53:50;;;;;;;15.15;5.68;;;;;;;28.22;39.90;98773.66;5067588;28;20060;-90
2022/06/05 08:56:22;;;;;;;19.33;5.93;;;;;;;27.99;39.37;98780.53;5068585;28;20048;-88
2022/06/05 08:58:54;;;;;;;17.05;5.78;;;;;;;28.41;38.01;98810.94;5069297;28;20037;-88
2022/06/05 09:01:26;;;;;;;15.77;6.20;;;;;;;28.70;36.67;98812.63;5067282;28;20526;-89
2022/06/05 09:03:58;;;;;;;13.85;5.43;;;;;;;29.33;36.79;98789.75;5067537;28;20047;-89
2022/06/05 09:06:32;;;;;;;14.15;5.82;;;;;;;30.05;35.52;98786.72;5068288;28;20072;-91
2022/06/05 09:09:05;;;;;;;16.40;5.90;;;;;;;30.66;33.12;98771.81;5068686;28;20040;-92
2022/06/05 09:11:42;;;;;;;17.42;5.60;;;;;;;30.80;34.15;98778.53;5069379;28;20028;-88
2022/06/05 09:14:21;;;;;;;16.08;5.30;;;;;;;30.23;34.26;98742.72;5067925;28;20052;-89
2022/06/05 09:16:51;;;;;;;13.50;4.85;;;;;;;29.90;34.75;98750.84;5065157;28;20421;-90
2022/06/05 09:19:23;;;;;;;7.45;4.10;;;;;;;29.69;33.65;98760.38;5069976;28;20033;-90
2022/06/05 09:21:56;;;;;;;10.90;4.90;;;;;;;29.56;33.15;98764.53;5064104;28;20041;-88
2022/06/05 09:24:29;;;;;;;16.02;4.93;;;;;;;29.95;34.26;98753.97;5067847;28;20045;-89
2022/06/05 09:26:59;;;;;;;12.75;4.60;;;;;;;30.50;32.80;98744.38;5067769;28;20041;-89
2022/06/05 09:29:37;;;;;;;11.35;4.18;;;;;;;30.41;32.61;98753.63;5070821;28;20036;-88
2022/06/05 09:32:34;;;;;;;15.55;4.60;;;;;;;30.56;33.27;98749.19;5067238;28;20044;-90
2022/06/05 09:35:12;;;;;;;11.40;4.10;;;;;;;30.42;31.52;98753.44;5066746;28;20037;-90
2022/06/05 09:37:49;;;;;;;14.57;4.30;;;;;;;30.60;30.85;98763.41;5068574;28;20517;-90
2022/06/05 09:40:17;;;;;;;9.82;4.40;;;;;;;30.40;30.56;98766.47;5070379;28;20071;-91
2022/06/05 09:43:01;;;;;;;;;;;;;;;30.43;31.48;98768.88;5068747;28;20064;-92
2022/06/05 09:45:41;;;;;;;11.10;4.63;;;;;;;30.45;31.46;98776.97;5064151;28;19928;-91
2022/06/05 09:48:18;;;;;;;11.43;4.68;;;;;;;29.91;31.66;98788.22;5069768;28;20504;-92
2022/06/05 09:50:44;;;;;;;12.98;4.45;;;;;;;30.75;31.77;98789.16;5067631;28;20040;-90
2022/06/05 09:53:15;;;;;;;11.05;4.55;;;;;;;30.68;31.08;98813.69;5064638;28;20124;-93
2022/06/05 09:55:59;;;;;;;12.38;4.15;;;;;;;30.40;31.53;98818.59;5055096;28;20053;-91
2022/06/05 09:58:56;;;;;;;11.68;4.22;;;;;;;30.56;30.82;98823.28;5053984;28;20457;-91
2022/06/05 10:01:28;;;;;;;8.35;3.88;;;;;;;30.81;31.01;98831.56;5055853;28;20047;-91
2022/06/05 10:03:56;;;;;;;12.70;3.78;;;;;;;31.12;30.43;98831.75;5054634;28;20128;-91
2022/06/05 10:06:29;;;;;;;12.73;4.32;;;;;;;30.78;30.36;98842.88;5055602;28;20111;-90
2022/06/05 10:09:04;;;;;;;10.95;4.05;;;;;;;30.94;30.33;98853.06;5052786;28;20795;-92
2022/06/05 10:11:39;;;;;;;10.68;3.92;;;;;;;30.56;29.10;98858.97;5058560;28;20033;-88
2022/06/05 10:14:18;;;;;;;11.35;4.30;;;;;;;30.84;30.19;98851.31;5054438;28;20076;-91
2022/06/05 10:16:51;;;;;;;11.40;4.10;;;;;;;30.84;29.98;98867.78;5060822;28;20069;-92
2022/06/05 10:19:31;;;;;;;11.48;3.80;;;;;;;30.45;30.74;98871.09;5055955;28;20120;-90
2022/06/05 10:22:07;;;;;;;8.15;3.80;;;;;;;30.80;30.20;98830.69;5057167;28;20056;-89
2022/06/05 10:24:46;;;;;;;12.90;4.60;;;;;;;31.09;29.82;98823.88;5054946;28;20041;-90
2022/06/05 10:27:15;;;;;;;10.05;3.92;;;;;;;31.17;29.66;98861.50;5054762;28;20740;-91
2022/06/05 10:29:47;;;;;;;9.00;3.30;;;;;;;31.38;29.01;98852.72;5054634;28;20037;-90
2022/06/05 10:32:25;;;;;;;10.77;3.83;;;;;;;31.62;29.10;98849.09;5051108;28;20079;-88
2022/06/05 10:34:56;;;;;;;8.80;5.25;;;;;;;31.48;28.56;98820.44;5056180;28;20044;-89
2022/06/05 10:37:28;;;;;;;8.75;5.10;;;;;;;31.19;28.81;98802.59;5055281;28;20033;-90
2022/06/05 10:40:18;;;;;;;8.65;4.63;;;;;;;30.83;28.45;98822.09;5054582;28;20044;-92
2022/06/05 10:46:24;;;;;;;11.25;3.33;;;;;;;29.83;30.83;98785.44;4992807;28;20479;-91
2022/06/05 10:48:56;;;;;;;9.45;3.42;;;;;;;29.79;29.50;98792.28;4989696;28;20104;-91
2022/06/05 10:51:32;;;;;;;9.25;3.60;;;;;;;29.74;29.33;98811.09;4990365;28;20054;-90
2022/06/05 10:54:06;;;;;;;7.95;3.40;;;;;;;29.77;31.18;98775.97;4989544;28;20042;-89
2022/06/05 10:56:42;;;;;;;9.98;4.18;;;;;;;29.75;30.88;98793.63;4991304;28;20045;-91
2022/06/05 10:59:16;;;;;;;10.57;3.60;;;;;;;29.63;30.72;98795.75;4992232;28;20046;-87
2022/06/05 11:01:54;;;;;;;10.98;4.47;;;;;;;29.81;31.00;98798.44;4991337;28;20038;-91
2022/06/05 11:04:34;;;;;;;;;;;;;;;29.86;31.33;98782.38;4992119;28;20055;-89
2022/06/05 11:07:13;;;;;;;8.70;3.97;;;;;;;30.18;31.74;98781.63;4990366;28;20731;-88
2022/06/05 11:09:45;;;;;;;8.95;3.70;;;;;;;30.43;31.13;98765.28;4992090;28;20130;-90
2022/06/05 11:15:25;;;;;;;12.88;3.85;;;;;;;30.66;30.87;98743.50;5089467;27;20401;-90
2022/06/05 11:18:03;;;;;;;7.78;3.75;;;;;;;30.85;30.96;98732.19;5090258;28;20570;-90
2022/06/05 11:20:29;;;;;;;9.23;4.00;;;;;;;31.09;30.85;98744.22;5089262;28;20040;-89
2022/06/05 11:23:00;;;;;;;8.85;3.60;;;;;;;31.09;29.77;98727.75;5089753;28;20112;-91
2022/06/05 11:25:36;;;;;;;10.82;3.75;;;;;;;31.22;31.13;98714.31;5086549;28;20128;-91
2022/06/05 11:28:24;;;;;;;7.75;3.97;;;;;;;31.57;30.45;98720.44;5087720;28;20036;-89
2022/06/05 11:31:08;;;;;;;7.50;3.65;;;;;;;31.35;29.82;98722.03;5089195;28;20055;-91
2022/06/05 11:33:42;;;;;;;8.93;3.63;;;;;;;31.24;30.25;98712.25;5083155;28;20048;-90
2022/06/05 11:36:18;;;;;;;11.65;3.67;;;;;;;31.35;30.37;98708.28;5089332;28;20040;-89
2022/06/05 11:38:58;;;;;;;10.75;4.10;;;;;;;31.40;30.74;98722.34;5087787;28;20661;-90
2022/06/05 11:41:29;;;;;;;11.05;3.50;;;;;;;31.38;30.46;98694.22;5090419;28;20043;-91
2022/06/05 11:44:14;;;;;;;10.15;3.58;;;;;;;31.49;30.01;98695.75;5088815;28;20046;-88
2022/06/05 11:46:51;;;;;;;10.48;4.07;;;;;;;31.60;30.61;98692.63;5089509;28;20118;-91
2022/06/05 11:49:21;;;;;;;10.65;3.83;;;;;;;31.55;29.87;98684.03;5088862;28;20401;-91
2022/06/05 11:52:05;;;;;;;8.05;3.65;;;;;;;31.68;29.84;98692.56;5090666;28;20037;-92
2022/06/05 11:54:40;;;;;;;9.57;3.97;;;;;;;31.68;29.33;98669.72;5093154;28;20032;-90
2022/06/05 11:57:14;;;;;;;6.85;3.53;;;;;;;31.68;29.33;98665.06;5090583;28;20052;-89
2022/06/05 11:59:46;;;;;;;8.65;3.38;;;;;;;31.52;29.60;98684.41;5087516;28;20036;-90
2022/06/05 12:02:36;;;;;;;11.15;3.72;;;;;;;31.29;29.83;98693.38;5086204;28;20059;-93